createdAt,value
2023-01-26T00:01:22.003Z,0.51
2023-01-26T00:03:49.166Z,0.54
2023-01-26T00:06:18.501Z,0.55
2023-01-26T00:08:51.351Z,0.57
2023-01-26T00:11:20.551Z,0.57
2023-01-26T00:13:50.474Z,0.56
2023-01-26T00:16:16.964Z,0.55
2023-01-26T00:18:43.534Z,0.52
2023-01-26T00:21:17.439Z,0.47
2023-01-26T00:23:44.522Z,0.44
2023-01-26T00:26:14.533Z,0.40
2023-01-26T00:28:41.829Z,0.39
2023-01-26T00:31:12.963Z,0.34
2023-01-26T00:33:39.564Z,0.34
2023-01-26T00:36:06.492Z,0.38
2023-01-26T00:38:33.093Z,0.41
2023-01-26T00:41:01.315Z,0.43
2023-01-26T00:43:27.720Z,0.46
2023-01-26T00:45:54.184Z,0.48
2023-01-26T00:48:22.528Z,0.48
2023-01-26T00:50:51.907Z,0.49
2023-01-26T00:53:18.439Z,0.52
2023-01-26T00:55:45.564Z,0.50
2023-01-26T00:58:12.026Z,0.55
2023-01-26T01:00:39.165Z,0.52
2023-01-26T01:03:06.696Z,0.50
2023-01-26T01:05:34.157Z,0.44
2023-01-26T01:08:00.746Z,0.41
2023-01-26T01:10:28.203Z,0.40
2023-01-26T01:12:54.874Z,0.38
2023-01-26T01:15:23.158Z,0.41
2023-01-26T01:17:50.233Z,0.39
2023-01-26T01:20:16.734Z,0.36
2023-01-26T01:22:43.195Z,0.34
2023-01-26T01:25:09.862Z,0.37
2023-01-26T01:27:36.311Z,0.32
2023-01-26T01:30:07.578Z,0.28
2023-01-26T01:32:35.948Z,0.32
2023-01-26T01:35:02.797Z,0.31
2023-01-26T01:37:30.347Z,0.39
2023-01-26T01:39:56.816Z,0.44
2023-01-26T01:42:23.239Z,0.46
2023-01-26T01:45:26.843Z,0.51
2023-01-26T01:47:57.561Z,0.49
2023-01-26T01:50:25.716Z,0.47
2023-01-26T01:52:55.979Z,0.47
2023-01-26T01:55:24.699Z,0.50
2023-01-26T01:57:58.796Z,0.53
2023-01-26T02:00:26.179Z,0.56
2023-01-26T02:03:11.313Z,0.54
2023-01-26T02:05:47.487Z,0.53
2023-01-26T02:08:15.830Z,0.55
2023-01-26T02:10:50.006Z,0.53
2023-01-26T02:13:18.703Z,0.45
2023-01-26T02:15:45.230Z,0.43
2023-01-26T02:18:11.800Z,0.42
2023-01-26T02:20:55.280Z,0.41
2023-01-26T02:23:58.061Z,0.40
2023-01-26T02:26:27.219Z,0.37
2023-01-26T02:28:55.082Z,0.35
2023-01-26T02:31:23.587Z,0.36
2023-01-26T02:33:50.419Z,0.35
2023-01-26T02:36:23.536Z,0.34
2023-01-26T02:39:08.831Z,0.35
2023-01-26T02:41:53.853Z,0.36
2023-01-26T02:44:21.963Z,0.37
2023-01-26T02:46:48.352Z,0.39
2023-01-26T02:49:34.779Z,0.38
2023-01-26T02:52:01.273Z,0.31
2023-01-26T02:54:46.617Z,0.27
2023-01-26T02:57:13.019Z,0.25
2023-01-26T02:59:40.325Z,0.22
2023-01-26T03:02:07.416Z,0.20
2023-01-26T03:04:33.944Z,0.18
2023-01-26T03:07:00.411Z,0.16
2023-01-26T03:09:26.902Z,0.21
2023-01-26T03:11:53.343Z,0.19
2023-01-26T03:14:19.842Z,0.19
2023-01-26T03:16:46.430Z,0.17
2023-01-26T03:19:32.950Z,0.16
2023-01-26T03:22:18.667Z,0.16
2023-01-26T03:25:03.793Z,0.14
2023-01-26T03:27:37.966Z,0.13
2023-01-26T03:30:05.823Z,0.10
2023-01-26T03:32:32.457Z,0.11
2023-01-26T03:35:00.082Z,0.11
2023-01-26T03:37:26.684Z,0.11
2023-01-26T03:40:25.201Z,0.19
2023-01-26T03:43:10.640Z,0.22
2023-01-26T03:45:55.820Z,0.24
2023-01-26T03:48:43.855Z,0.20
2023-01-26T03:51:28.953Z,0.23
2023-01-26T03:54:15.238Z,0.20
2023-01-26T03:56:41.691Z,0.12
2023-01-26T03:59:15.309Z,0.08
2023-01-26T04:02:04.294Z,0.04
2023-01-26T04:04:50.595Z,-0.09
2023-01-26T04:07:38.016Z,-0.10
2023-01-26T04:10:04.783Z,-0.15
2023-01-26T04:12:31.196Z,-0.18
2023-01-26T04:15:34.818Z,-0.20
2023-01-26T04:18:25.507Z,-0.26
2023-01-26T04:21:10.740Z,-0.30
2023-01-26T04:23:39.811Z,-0.32
2023-01-26T04:26:06.776Z,-0.27
2023-01-26T04:28:33.506Z,-0.21
2023-01-26T04:31:00.224Z,-0.15
2023-01-26T04:33:26.665Z,-0.15
2023-01-26T04:35:53.237Z,-0.18
2023-01-26T04:38:20.577Z,-0.19
2023-01-26T04:40:53.730Z,-0.16
2023-01-26T04:43:21.230Z,-0.16
2023-01-26T04:46:01.308Z,-0.11
2023-01-26T04:48:29.739Z,-0.16
2023-01-26T04:50:57.806Z,-0.14
2023-01-26T04:53:24.863Z,-0.15
2023-01-26T04:55:52.128Z,-0.19
2023-01-26T04:58:18.995Z,-0.19
2023-01-26T05:00:54.149Z,-0.15
2023-01-26T05:03:20.630Z,-0.14
2023-01-26T05:05:52.623Z,-0.12
2023-01-26T05:08:22.591Z,-0.11
2023-01-26T05:10:49.669Z,-0.09
2023-01-26T05:13:41.270Z,-0.05
2023-01-26T05:16:24.635Z,-0.06
2023-01-26T05:19:20.286Z,-0.12
2023-01-26T05:22:13.014Z,-0.12
2023-01-26T05:24:45.942Z,-0.13
2023-01-26T05:27:25.928Z,-0.14
2023-01-26T05:30:00.319Z,-0.14
2023-01-26T05:32:28.571Z,-0.15
2023-01-26T05:34:55.774Z,-0.18
2023-01-26T05:37:25.065Z,-0.16
2023-01-26T05:39:51.587Z,-0.10
2023-01-26T05:42:19.472Z,-0.01
2023-01-26T05:44:45.890Z,0.03
2023-01-26T05:47:14.568Z,0.04
2023-01-26T05:49:43.232Z,0.04
2023-01-26T05:52:17.391Z,0.01
2023-01-26T05:54:43.859Z,0.04
2023-01-26T05:57:11.876Z,0.05
2023-01-26T05:59:43.564Z,0.06
2023-01-26T06:02:12.447Z,0.04
2023-01-26T06:04:40.829Z,0.04
2023-01-26T06:07:07.582Z,0.02
2023-01-26T06:09:42.091Z,0.02
2023-01-26T06:12:24.739Z,0.00
2023-01-26T06:14:57.671Z,0.00
2023-01-26T06:17:32.421Z,0.01
2023-01-26T06:20:01.473Z,0.03
2023-01-26T06:22:30.601Z,-0.01
2023-01-26T06:24:58.788Z,-0.02
2023-01-26T06:27:25.280Z,-0.04
2023-01-26T06:29:52.606Z,-0.06
2023-01-26T06:32:20.001Z,-0.08
2023-01-26T06:34:52.780Z,-0.11
2023-01-26T06:37:20.049Z,-0.04
2023-01-26T06:39:46.813Z,-0.02
2023-01-26T06:42:13.281Z,-0.01
2023-01-26T06:44:39.870Z,0.02
2023-01-26T06:47:07.677Z,-0.01
2023-01-26T06:49:34.653Z,-0.09
2023-01-26T06:52:19.182Z,-0.10
2023-01-26T06:54:50.567Z,0.00
2023-01-26T06:57:16.991Z,0.01
2023-01-26T07:00:03.948Z,0.08
2023-01-26T07:02:38.319Z,0.11
2023-01-26T07:05:05.264Z,0.17
2023-01-26T07:07:31.707Z,0.16
2023-01-26T07:09:58.192Z,0.16
2023-01-26T07:12:24.823Z,0.11
2023-01-26T07:14:52.081Z,0.14
2023-01-26T07:17:18.512Z,0.16
2023-01-26T07:19:45.261Z,0.15
2023-01-26T07:22:14.252Z,0.11
2023-01-26T07:24:40.664Z,0.16
2023-01-26T07:27:07.378Z,0.11
2023-01-26T07:29:33.788Z,0.06
2023-01-26T07:32:00.229Z,0.03
2023-01-26T07:34:26.644Z,-0.02
2023-01-26T07:36:53.114Z,0.00
2023-01-26T07:39:19.512Z,0.04
2023-01-26T07:41:45.909Z,0.06
2023-01-26T07:44:33.579Z,0.05
2023-01-26T07:46:59.980Z,0.04
2023-01-26T07:49:26.374Z,0.04
2023-01-26T07:51:53.986Z,0.06
2023-01-26T07:54:21.541Z,0.02
2023-01-26T07:56:51.509Z,0.06
2023-01-26T07:59:18.075Z,0.04
2023-01-26T08:01:44.525Z,0.00
2023-01-26T08:04:12.215Z,0.02
2023-01-26T08:06:38.644Z,-0.02
2023-01-26T08:09:05.136Z,-0.06
2023-01-26T08:11:31.548Z,-0.11
2023-01-26T08:13:58.018Z,-0.14
2023-01-26T08:16:24.537Z,-0.13
2023-01-26T08:18:50.984Z,-0.07
2023-01-26T08:21:18.915Z,-0.09
2023-01-26T08:23:50.224Z,-0.04
2023-01-26T08:26:17.972Z,-0.06
2023-01-26T08:28:44.785Z,-0.10
2023-01-26T08:31:21.512Z,-0.03
2023-01-26T08:33:54.307Z,-0.03
2023-01-26T08:36:22.730Z,0.02
2023-01-26T08:38:49.595Z,0.12
2023-01-26T08:41:16.027Z,0.20
2023-01-26T08:43:42.699Z,0.22
2023-01-26T08:46:09.613Z,0.27
2023-01-26T08:48:37.293Z,0.30
2023-01-26T08:51:05.754Z,0.33
2023-01-26T08:53:33.949Z,0.31
2023-01-26T08:56:04.976Z,0.28
2023-01-26T08:58:32.638Z,0.26
2023-01-26T09:00:59.787Z,0.29
2023-01-26T09:03:26.292Z,0.30
2023-01-26T09:05:52.709Z,0.28
2023-01-26T09:08:19.148Z,0.23
2023-01-26T09:10:45.596Z,0.19
2023-01-26T09:13:12.078Z,0.14
2023-01-26T09:15:38.812Z,0.10
2023-01-26T09:18:05.585Z,0.07
2023-01-26T09:20:32.053Z,0.10
2023-01-26T09:22:58.454Z,0.16
2023-01-26T09:25:24.899Z,0.23
2023-01-26T09:27:51.306Z,0.25
2023-01-26T09:30:17.776Z,0.24
2023-01-26T09:32:44.212Z,0.25
2023-01-26T09:35:14.232Z,0.24
2023-01-26T09:37:41.230Z,0.20
2023-01-26T09:40:17.736Z,0.16
2023-01-26T09:43:17.603Z,0.18
2023-01-26T09:45:56.979Z,0.23
2023-01-26T09:48:40.811Z,0.26
2023-01-26T09:51:14.663Z,0.28
2023-01-26T09:53:47.691Z,0.26
2023-01-26T09:56:18.596Z,0.25
2023-01-26T09:58:53.516Z,0.22
2023-01-26T10:01:33.620Z,0.22
2023-01-26T10:04:11.138Z,0.20
2023-01-26T10:06:38.717Z,0.20
2023-01-26T10:09:16.924Z,0.20
2023-01-26T10:11:47.914Z,0.27
2023-01-26T10:14:23.673Z,0.34
2023-01-26T10:16:53.628Z,0.39
2023-01-26T10:19:30.614Z,0.42
2023-01-26T10:22:02.437Z,0.43
2023-01-26T10:24:29.059Z,0.47
2023-01-26T10:26:58.113Z,0.51
2023-01-26T10:29:24.566Z,0.56
2023-01-26T10:31:51.084Z,0.59
2023-01-26T10:34:23.856Z,0.62
2023-01-26T10:36:50.349Z,0.65
2023-01-26T10:39:17.950Z,0.68
2023-01-26T10:42:02.690Z,0.69
2023-01-26T10:44:39.180Z,0.67
2023-01-26T10:47:15.754Z,0.75
2023-01-26T10:49:43.006Z,0.71
2023-01-26T10:52:21.537Z,0.67
2023-01-26T10:55:13.097Z,0.64
2023-01-26T10:57:42.428Z,0.60
2023-01-26T11:00:29.871Z,0.64
2023-01-26T11:03:06.111Z,0.58
2023-01-26T11:05:32.713Z,0.59
2023-01-26T11:08:00.338Z,0.61
2023-01-26T11:10:34.633Z,0.63
2023-01-26T11:13:20.108Z,0.58
2023-01-26T11:16:06.079Z,0.53
2023-01-26T11:18:38.091Z,0.49
2023-01-26T11:21:17.959Z,0.43
2023-01-26T11:24:21.240Z,0.45
2023-01-26T11:27:09.827Z,0.45
2023-01-26T11:30:01.718Z,0.41
2023-01-26T11:32:51.187Z,0.51
2023-01-26T11:35:57.227Z,0.49
2023-01-26T11:38:38.194Z,0.43
2023-01-26T11:41:33.976Z,0.42
2023-01-26T11:44:25.649Z,0.44
2023-01-26T11:47:01.879Z,0.49
2023-01-26T11:49:44.998Z,0.53
2023-01-26T11:52:36.822Z,0.56
2023-01-26T11:55:37.835Z,0.59
2023-01-26T11:58:32.069Z,0.58
2023-01-26T12:01:31.256Z,0.53
2023-01-26T12:03:57.879Z,0.50
2023-01-26T12:06:31.860Z,0.49
2023-01-26T12:09:10.428Z,0.48
2023-01-26T12:11:55.423Z,0.46
2023-01-26T12:14:25.941Z,0.42
2023-01-26T12:17:18.697Z,0.39
2023-01-26T12:19:54.697Z,0.41
2023-01-26T12:22:40.483Z,0.44
2023-01-26T12:25:41.304Z,0.40
2023-01-26T12:28:37.822Z,0.35
2023-01-26T12:31:08.610Z,0.36
2023-01-26T12:33:36.301Z,0.37
2023-01-26T12:36:35.007Z,0.34
2023-01-26T12:39:18.727Z,0.35
2023-01-26T12:42:10.652Z,0.41
2023-01-26T12:44:46.151Z,0.43
2023-01-26T12:47:34.821Z,0.49
2023-01-26T12:50:09.490Z,0.48
2023-01-26T12:52:45.850Z,0.44
2023-01-26T12:55:21.544Z,0.42
2023-01-26T12:57:55.843Z,0.40
2023-01-26T13:00:25.812Z,0.36
2023-01-26T13:02:58.617Z,0.42
2023-01-26T13:05:28.208Z,0.43
2023-01-26T13:07:55.084Z,0.43
2023-01-26T13:10:27.308Z,0.46
2023-01-26T13:13:26.037Z,0.50
2023-01-26T13:16:34.555Z,0.49
2023-01-26T13:19:02.343Z,0.46
2023-01-26T13:21:37.988Z,0.45
2023-01-26T13:24:24.476Z,0.46
2023-01-26T13:26:56.989Z,0.47
2023-01-26T13:29:31.764Z,0.45
2023-01-26T13:32:02.082Z,0.45
2023-01-26T13:34:31.088Z,0.39
2023-01-26T13:37:08.799Z,0.43
2023-01-26T13:39:38.248Z,0.43
2023-01-26T13:42:17.222Z,0.38
2023-01-26T13:44:49.749Z,0.35
2023-01-26T13:47:23.268Z,0.40
2023-01-26T13:49:50.655Z,0.42
2023-01-26T13:52:26.219Z,0.42
2023-01-26T13:54:56.746Z,0.43
2023-01-26T13:57:29.145Z,0.40
2023-01-26T14:00:00.404Z,0.37
2023-01-26T14:02:32.567Z,0.37
2023-01-26T14:05:00.234Z,0.39
2023-01-26T14:07:40.909Z,0.38
2023-01-26T14:10:08.298Z,0.41
2023-01-26T14:12:40.398Z,0.35
2023-01-26T14:15:08.044Z,0.41
2023-01-26T14:17:37.409Z,0.47
2023-01-26T14:20:25.894Z,0.46
2023-01-26T14:23:07.280Z,0.45
2023-01-26T14:25:34.455Z,0.44
2023-01-26T14:28:00.992Z,0.40
2023-01-26T14:30:34.110Z,0.42
2023-01-26T14:33:04.898Z,0.42
2023-01-26T14:35:31.732Z,0.40
2023-01-26T14:38:17.866Z,0.42
2023-01-26T14:40:46.400Z,0.39
2023-01-26T14:43:13.810Z,0.33
2023-01-26T14:45:47.172Z,0.30
2023-01-26T14:48:17.108Z,0.28
2023-01-26T14:50:46.171Z,0.22
2023-01-26T14:53:21.291Z,0.16
2023-01-26T14:55:48.870Z,0.14
2023-01-26T14:58:29.354Z,0.09
2023-01-26T15:00:58.515Z,0.08
2023-01-26T15:03:37.388Z,0.14
2023-01-26T15:06:18.545Z,0.13
2023-01-26T15:09:04.472Z,0.12
2023-01-26T15:11:58.050Z,0.11
2023-01-26T15:14:32.324Z,0.12
2023-01-26T15:16:58.938Z,0.16
2023-01-26T15:19:31.345Z,0.18
2023-01-26T15:21:57.973Z,0.19
2023-01-26T15:24:24.471Z,0.16
2023-01-26T15:26:51.540Z,0.13
2023-01-26T15:29:28.160Z,0.11
2023-01-26T15:31:57.089Z,0.07
2023-01-26T15:34:41.978Z,0.08
2023-01-26T15:37:28.956Z,0.07
2023-01-26T15:39:55.417Z,0.03
2023-01-26T15:42:30.941Z,-0.02
2023-01-26T15:44:57.746Z,-0.06
2023-01-26T15:47:24.630Z,-0.06
2023-01-26T15:49:51.125Z,-0.07
2023-01-26T15:52:21.270Z,-0.08
2023-01-26T15:54:47.654Z,-0.06
2023-01-26T15:57:14.327Z,-0.11
2023-01-26T15:59:41.354Z,-0.12
2023-01-26T16:02:16.404Z,-0.12
2023-01-26T16:04:43.507Z,-0.18
2023-01-26T16:07:18.362Z,-0.17
2023-01-26T16:09:44.845Z,-0.21
2023-01-26T16:12:33.796Z,-0.22
2023-01-26T16:15:00.695Z,-0.20
2023-01-26T16:17:27.509Z,-0.20
2023-01-26T16:19:53.950Z,-0.23
2023-01-26T16:22:20.447Z,-0.28
2023-01-26T16:24:47.246Z,-0.33
2023-01-26T16:27:13.741Z,-0.28
2023-01-26T16:29:40.358Z,-0.29
2023-01-26T16:32:26.966Z,-0.31
2023-01-26T16:34:53.415Z,-0.33
2023-01-26T16:37:19.799Z,-0.36
2023-01-26T16:39:46.296Z,-0.37
2023-01-26T16:42:17.870Z,-0.34
2023-01-26T16:44:46.109Z,-0.36
2023-01-26T16:47:12.530Z,-0.37
2023-01-26T16:49:38.910Z,-0.39
2023-01-26T16:52:05.348Z,-0.45
2023-01-26T16:54:31.733Z,-0.43
2023-01-26T16:56:58.196Z,-0.45
2023-01-26T16:59:24.610Z,-0.48
2023-01-26T17:01:51.165Z,-0.55
2023-01-26T17:04:17.634Z,-0.49
2023-01-26T17:06:44.057Z,-0.48
2023-01-26T17:09:10.622Z,-0.48
2023-01-26T17:11:37.080Z,-0.41
2023-01-26T17:14:03.744Z,-0.42
2023-01-26T17:16:31.885Z,-0.46
2023-01-26T17:18:58.707Z,-0.45
2023-01-26T17:21:26.728Z,-0.42
2023-01-26T17:23:56.204Z,-0.39
2023-01-26T17:26:22.987Z,-0.40
2023-01-26T17:28:52.654Z,-0.38
2023-01-26T17:31:21.141Z,-0.35
2023-01-26T17:33:49.283Z,-0.37
2023-01-26T17:36:17.222Z,-0.34
2023-01-26T17:38:43.973Z,-0.30
2023-01-26T17:41:10.753Z,-0.27
2023-01-26T17:43:37.193Z,-0.28
2023-01-26T17:46:03.672Z,-0.24
2023-01-26T17:48:30.166Z,-0.26
2023-01-26T17:50:56.594Z,-0.27
2023-01-26T17:53:24.383Z,-0.30
2023-01-26T17:55:54.391Z,-0.27
2023-01-26T17:58:20.818Z,-0.25
2023-01-26T18:00:47.245Z,-0.21
2023-01-26T18:03:13.711Z,-0.24
2023-01-26T18:05:40.153Z,-0.28
2023-01-26T18:08:06.620Z,-0.31
2023-01-26T18:10:33.064Z,-0.35
2023-01-26T18:12:59.516Z,-0.41
2023-01-26T18:15:25.986Z,-0.44
2023-01-26T18:17:52.419Z,-0.45
2023-01-26T18:20:18.891Z,-0.43
2023-01-26T18:22:45.285Z,-0.45
2023-01-26T18:25:11.988Z,-0.41
2023-01-26T18:27:38.565Z,-0.37
2023-01-26T18:30:05.515Z,-0.35
2023-01-26T18:32:31.910Z,-0.31
2023-01-26T18:34:58.320Z,-0.30
2023-01-26T18:37:24.712Z,-0.29
2023-01-26T18:39:51.137Z,-0.30
2023-01-26T18:42:17.508Z,-0.29
2023-01-26T18:44:43.901Z,-0.28
2023-01-26T18:47:10.283Z,-0.29
2023-01-26T18:49:36.679Z,-0.29
2023-01-26T18:52:03.099Z,-0.31
2023-01-26T18:54:30.625Z,-0.32
2023-01-26T18:56:57.040Z,-0.37
2023-01-26T18:59:23.488Z,-0.37
2023-01-26T19:01:49.973Z,-0.37
2023-01-26T19:04:18.262Z,-0.35
2023-01-26T19:06:44.852Z,-0.30
2023-01-26T19:09:11.688Z,-0.33
2023-01-26T19:11:39.039Z,-0.31
2023-01-26T19:14:07.375Z,-0.30
2023-01-26T19:16:34.542Z,-0.31
2023-01-26T19:19:01.001Z,-0.34
2023-01-26T19:21:27.912Z,-0.37
2023-01-26T19:23:56.193Z,-0.37
2023-01-26T19:26:25.524Z,-0.39
2023-01-26T19:28:53.977Z,-0.44
2023-01-26T19:31:21.215Z,-0.42
2023-01-26T19:33:52.569Z,-0.40
2023-01-26T19:36:18.982Z,-0.45
2023-01-26T19:38:45.500Z,-0.51
2023-01-26T19:41:12.358Z,-0.57
2023-01-26T19:43:38.751Z,-0.60
2023-01-26T19:46:08.089Z,-0.60
2023-01-26T19:48:35.217Z,-0.61
2023-01-26T19:51:12.350Z,-0.65
2023-01-26T19:53:41.646Z,-0.65
2023-01-26T19:56:11.021Z,-0.62
2023-01-26T19:58:38.073Z,-0.56
2023-01-26T20:01:12.255Z,-0.54
2023-01-26T20:03:39.332Z,-0.54
2023-01-26T20:06:13.903Z,-0.57
2023-01-26T20:08:40.489Z,-0.53
2023-01-26T20:11:08.788Z,-0.52
2023-01-26T20:13:36.305Z,-0.48
2023-01-26T20:16:04.199Z,-0.44
2023-01-26T20:18:30.677Z,-0.40
2023-01-26T20:20:59.544Z,-0.37
2023-01-26T20:23:27.425Z,-0.34
2023-01-26T20:26:08.539Z,-0.33
2023-01-26T20:28:36.330Z,-0.32
2023-01-26T20:31:15.556Z,-0.29
2023-01-26T20:33:43.781Z,-0.30
2023-01-26T20:36:19.193Z,-0.28
2023-01-26T20:38:46.875Z,-0.28
2023-01-26T20:41:16.785Z,-0.29
2023-01-26T20:43:58.039Z,-0.33
2023-01-26T20:46:26.732Z,-0.38
2023-01-26T20:48:55.515Z,-0.36
2023-01-26T20:51:24.839Z,-0.32
2023-01-26T20:53:51.477Z,-0.33
2023-01-26T20:56:20.507Z,-0.33
2023-01-26T20:58:46.987Z,-0.31
2023-01-26T21:01:16.326Z,-0.31
2023-01-26T21:03:43.712Z,-0.32
2023-01-26T21:06:12.724Z,-0.29
2023-01-26T21:08:40.077Z,-0.28
2023-01-26T21:11:09.972Z,-0.29
2023-01-26T21:13:37.053Z,-0.32
2023-01-26T21:16:04.164Z,-0.31
2023-01-26T21:18:30.626Z,-0.32
2023-01-26T21:21:03.457Z,-0.31
2023-01-26T21:23:32.502Z,-0.31
2023-01-26T21:26:00.854Z,-0.31
2023-01-26T21:28:27.777Z,-0.38
2023-01-26T21:31:07.537Z,-0.41
2023-01-26T21:33:36.925Z,-0.44
2023-01-26T21:36:05.402Z,-0.47
2023-01-26T21:38:34.499Z,-0.48
2023-01-26T21:41:34.357Z,-0.50
2023-01-26T21:44:04.064Z,-0.54
2023-01-26T21:46:30.494Z,-0.55
2023-01-26T21:48:57.135Z,-0.55
2023-01-26T21:51:43.187Z,-0.57
2023-01-26T21:54:09.849Z,-0.60
2023-01-26T21:56:36.879Z,-0.61
2023-01-26T21:59:06.122Z,-0.60
2023-01-26T22:01:34.704Z,-0.53
2023-01-26T22:04:02.982Z,-0.57
2023-01-26T22:06:29.942Z,-0.58
2023-01-26T22:08:58.481Z,-0.56
2023-01-26T22:11:25.755Z,-0.51
2023-01-26T22:13:52.195Z,-0.48
2023-01-26T22:16:18.914Z,-0.51
2023-01-26T22:18:45.684Z,-0.52
2023-01-26T22:21:12.988Z,-0.53
2023-01-26T22:23:40.990Z,-0.58
2023-01-26T22:26:13.642Z,-0.63
2023-01-26T22:28:40.856Z,-0.67
2023-01-26T22:31:07.687Z,-0.67
2023-01-26T22:33:35.353Z,-0.64
2023-01-26T22:36:05.684Z,-0.58
2023-01-26T22:38:33.557Z,-0.54
2023-01-26T22:41:00.350Z,-0.56
2023-01-26T22:43:27.370Z,-0.62
2023-01-26T22:45:54.260Z,-0.64
2023-01-26T22:48:20.810Z,-0.65
2023-01-26T22:50:47.550Z,-0.67
2023-01-26T22:53:14.248Z,-0.70
2023-01-26T22:55:42.075Z,-0.69
2023-01-26T22:58:10.595Z,-0.66
2023-01-26T23:00:38.262Z,-0.74
2023-01-26T23:03:05.564Z,-0.75
2023-01-26T23:05:33.672Z,-0.76
2023-01-26T23:08:00.988Z,-0.76
2023-01-26T23:10:29.080Z,-0.74
2023-01-26T23:12:55.897Z,-0.69
2023-01-26T23:15:22.785Z,-0.66
2023-01-26T23:17:50.564Z,-0.65
2023-01-26T23:20:21.230Z,-0.63
2023-01-26T23:22:48.070Z,-0.61
2023-01-26T23:25:33.218Z,-0.58
2023-01-26T23:28:03.905Z,-0.58
2023-01-26T23:30:30.353Z,-0.53
2023-01-26T23:32:56.774Z,-0.49
2023-01-26T23:35:26.197Z,-0.48
2023-01-26T23:37:52.930Z,-0.50
2023-01-26T23:40:19.361Z,-0.53
2023-01-26T23:43:03.289Z,-0.52
2023-01-26T23:45:32.819Z,-0.51
2023-01-26T23:47:59.609Z,-0.46
2023-01-26T23:50:26.648Z,-0.47
2023-01-26T23:52:53.092Z,-0.49
2023-01-26T23:55:20.213Z,-0.49
2023-01-26T23:57:46.719Z,-0.51
